WJA390 CYYZ-CYHZ
Flight info
| Callsign | WJA390 |
|---|---|
| Flight time | N/A |
| Altitude | 37000 |
| Route | DEDKI5 OLABA Q951 TALNO Q929 TOXAL DCT EBONY FUNDY5 |
| Aircraft | B38M/M-SDE1FGHILORVWXY/HB1 |
Departure
| Time | 2026-05-06 02:05 |
|---|---|
| Airport | Toronto Pearson International Airport (CYYZ) |
Arrival
| Time | N/A |
|---|---|
| Airport | Halifax / Stanfield International Airport (CYHZ) |
| Time | Latitude | Longitude | Altitude | Speed | Heading |
|---|---|---|---|---|---|
| 2026-05-06 01:19 | 43.68160 | -79.61555 | 564 ft | 0 kts | 58° |
| 2026-05-06 01:50 | 43.68160 | -79.61556 | 564 ft | 1 kts | 58° |
| 2026-05-06 01:50 | 43.68148 | -79.61584 | 573 ft | 3 kts | 60° |
| 2026-05-06 01:50 | 43.68136 | -79.61609 | 566 ft | 4 kts | 54° |
| 2026-05-06 01:51 | 43.68126 | -79.61633 | 570 ft | 4 kts | 80° |
| 2026-05-06 01:51 | 43.68127 | -79.61668 | 565 ft | 4 kts | 101° |
| 2026-05-06 01:51 | 43.68136 | -79.61702 | 572 ft | 4 kts | 123° |
| 2026-05-06 01:51 | 43.68154 | -79.61727 | 570 ft | 4 kts | 154° |
| 2026-05-06 01:52 | 43.68175 | -79.61735 | 572 ft | 1 kts | 178° |
| 2026-05-06 01:57 | 43.68171 | -79.61734 | 570 ft | 2 kts | 177° |
| 2026-05-06 01:57 | 43.68133 | -79.61744 | 567 ft | 9 kts | 200° |
| 2026-05-06 01:58 | 43.68071 | -79.61810 | 568 ft | 13 kts | 225° |
| 2026-05-06 01:58 | 43.68014 | -79.61891 | 565 ft | 11 kts | 231° |
| 2026-05-06 01:58 | 43.67980 | -79.61992 | 567 ft | 12 kts | 241° |
| 2026-05-06 01:58 | 43.67978 | -79.62103 | 566 ft | 13 kts | 305° |
| 2026-05-06 01:59 | 43.68049 | -79.62201 | 564 ft | 16 kts | 317° |
| 2026-05-06 01:59 | 43.68134 | -79.62312 | 564 ft | 20 kts | 317° |
| 2026-05-06 01:59 | 43.68258 | -79.62465 | 567 ft | 21 kts | 320° |
| 2026-05-06 01:59 | 43.68363 | -79.62596 | 571 ft | 21 kts | 318° |
| 2026-05-06 02:00 | 43.68470 | -79.62740 | 567 ft | 21 kts | 315° |
| 2026-05-06 02:00 | 43.68559 | -79.62858 | 567 ft | 18 kts | 317° |
| 2026-05-06 02:00 | 43.68653 | -79.62978 | 564 ft | 19 kts | 317° |
| 2026-05-06 02:00 | 43.68754 | -79.63110 | 564 ft | 21 kts | 315° |
| 2026-05-06 02:01 | 43.68862 | -79.63255 | 564 ft | 22 kts | 317° |
| 2026-05-06 02:01 | 43.68968 | -79.63388 | 567 ft | 20 kts | 317° |
| 2026-05-06 02:01 | 43.69060 | -79.63509 | 571 ft | 14 kts | 318° |
| 2026-05-06 02:01 | 43.69137 | -79.63504 | 570 ft | 12 kts | 39° |
| 2026-05-06 02:02 | 43.69213 | -79.63429 | 574 ft | 15 kts | 14° |
| 2026-05-06 02:02 | 43.69321 | -79.63420 | 570 ft | 14 kts | 2° |
| 2026-05-06 02:02 | 43.69386 | -79.63465 | 567 ft | 12 kts | 311° |
| 2026-05-06 02:02 | 43.69393 | -79.63536 | 568 ft | 5 kts | 237° |
| 2026-05-06 02:03 | 43.69385 | -79.63548 | 564 ft | 0 kts | 229° |
| 2026-05-06 02:04 | 43.69356 | -79.63592 | 569 ft | 27 kts | 226° |
| 2026-05-06 02:04 | 43.69048 | -79.64040 | 568 ft | 99 kts | 226° |
| 2026-05-06 02:04 | 43.68425 | -79.64938 | 577 ft | 156 kts | 226° |
| 2026-05-06 02:05 | 43.67652 | -79.66077 | 1022 ft | 168 kts | 227° |
| 2026-05-06 02:05 | 43.66856 | -79.67292 | 1735 ft | 174 kts | 227° |
| 2026-05-06 02:05 | 43.66106 | -79.68583 | 2564 ft | 172 kts | 232° |
| 2026-05-06 02:05 | 43.65336 | -79.70002 | 2981 ft | 198 kts | 233° |
| 2026-05-06 02:06 | 43.64484 | -79.71653 | 3331 ft | 226 kts | 236° |
| 2026-05-06 02:06 | 43.63552 | -79.73496 | 3896 ft | 243 kts | 237° |
| 2026-05-06 02:06 | 43.62464 | -79.75364 | 4575 ft | 261 kts | 221° |
| 2026-05-06 02:06 | 43.60769 | -79.76275 | 5534 ft | 267 kts | 187° |
| 2026-05-06 02:07 | 43.58921 | -79.75846 | 6515 ft | 278 kts | 162° |
| 2026-05-06 02:07 | 43.57316 | -79.74291 | 7399 ft | 292 kts | 136° |
| 2026-05-06 02:07 | 43.56243 | -79.71851 | 8215 ft | 302 kts | 126° |
| 2026-05-06 02:07 | 43.55123 | -79.69372 | 8997 ft | 307 kts | 130° |
| 2026-05-06 02:08 | 43.53967 | -79.66874 | 9885 ft | 311 kts | 130° |
| 2026-05-06 02:08 | 43.52796 | -79.64322 | 10530 ft | 322 kts | 130° |
| 2026-05-06 02:08 | 43.51587 | -79.61639 | 11068 ft | 338 kts | 127° |
| 2026-05-06 02:08 | 43.50814 | -79.58470 | 11760 ft | 361 kts | 103° |
| 2026-05-06 02:09 | 43.50921 | -79.54968 | 12621 ft | 375 kts | 80° |
| 2026-05-06 02:09 | 43.51625 | -79.51478 | 13449 ft | 381 kts | 78° |
| 2026-05-06 02:09 | 43.52321 | -79.47927 | 14203 ft | 386 kts | 78° |
| 2026-05-06 02:09 | 43.53017 | -79.44329 | 14979 ft | 390 kts | 78° |
| 2026-05-06 02:10 | 43.53805 | -79.40729 | 15773 ft | 395 kts | 75° |
| 2026-05-06 02:10 | 43.54635 | -79.37090 | 16485 ft | 402 kts | 75° |
| 2026-05-06 02:10 | 43.55470 | -79.33379 | 17209 ft | 407 kts | 76° |
| 2026-05-06 02:10 | 43.56309 | -79.29629 | 17966 ft | 412 kts | 76° |
| 2026-05-06 02:11 | 43.57156 | -79.25833 | 18614 ft | 416 kts | 75° |
| 2026-05-06 02:11 | 43.58008 | -79.22003 | 19250 ft | 420 kts | 75° |
| 2026-05-06 02:11 | 43.58867 | -79.18133 | 19873 ft | 424 kts | 75° |
| 2026-05-06 02:11 | 43.59734 | -79.14224 | 20489 ft | 428 kts | 75° |
| 2026-05-06 02:12 | 43.60605 | -79.10284 | 21095 ft | 432 kts | 75° |
| 2026-05-06 02:12 | 43.61473 | -79.06356 | 21679 ft | 436 kts | 75° |
| 2026-05-06 02:12 | 43.62361 | -79.02325 | 22235 ft | 441 kts | 75° |
| 2026-05-06 02:12 | 43.63256 | -78.98256 | 22776 ft | 446 kts | 74° |
| 2026-05-06 02:13 | 43.64157 | -78.94151 | 23363 ft | 449 kts | 74° |
| 2026-05-06 02:13 | 43.65066 | -78.90002 | 23824 ft | 454 kts | 74° |
| 2026-05-06 02:13 | 43.65980 | -78.85824 | 24320 ft | 456 kts | 74° |
| 2026-05-06 02:13 | 43.66898 | -78.81617 | 24793 ft | 459 kts | 74° |
| 2026-05-06 02:14 | 43.67822 | -78.77375 | 25285 ft | 462 kts | 74° |
| 2026-05-06 02:14 | 43.68755 | -78.73107 | 25711 ft | 466 kts | 73° |
| 2026-05-06 02:14 | 43.69985 | -78.68952 | 26173 ft | 469 kts | 65° |
| 2026-05-06 02:14 | 43.71344 | -78.64843 | 26597 ft | 472 kts | 65° |
| 2026-05-06 02:15 | 43.72707 | -78.60702 | 27047 ft | 474 kts | 65° |
| 2026-05-06 02:15 | 43.74077 | -78.56542 | 27484 ft | 477 kts | 65° |
| 2026-05-06 02:15 | 43.75457 | -78.52347 | 27933 ft | 480 kts | 65° |
| 2026-05-06 02:15 | 43.76843 | -78.48130 | 28369 ft | 483 kts | 65° |
| 2026-05-06 02:16 | 43.78234 | -78.43887 | 28786 ft | 486 kts | 65° |
| 2026-05-06 02:16 | 43.79634 | -78.39611 | 29200 ft | 489 kts | 65° |
| 2026-05-06 02:16 | 43.81036 | -78.35323 | 29609 ft | 491 kts | 65° |
| 2026-05-06 02:16 | 43.82448 | -78.30996 | 30041 ft | 494 kts | 65° |
| 2026-05-06 02:17 | 43.83867 | -78.26641 | 30303 ft | 499 kts | 65° |
| 2026-05-06 02:17 | 43.85296 | -78.22249 | 30630 ft | 501 kts | 65° |
| 2026-05-06 02:17 | 43.86729 | -78.17836 | 30970 ft | 503 kts | 65° |
| 2026-05-06 02:17 | 43.88167 | -78.13403 | 31290 ft | 506 kts | 65° |
| 2026-05-06 02:18 | 43.89611 | -78.08939 | 31628 ft | 508 kts | 65° |
| 2026-05-06 02:18 | 43.91058 | -78.04463 | 31943 ft | 510 kts | 65° |
| 2026-05-06 02:18 | 43.92512 | -77.99955 | 32267 ft | 513 kts | 65° |
| 2026-05-06 02:18 | 43.93950 | -77.95489 | 32543 ft | 515 kts | 65° |
| 2026-05-06 02:19 | 43.95409 | -77.90950 | 32878 ft | 516 kts | 65° |
| 2026-05-06 02:19 | 43.96873 | -77.86388 | 33219 ft | 518 kts | 65° |
| 2026-05-06 02:19 | 43.98363 | -77.81739 | 33472 ft | 522 kts | 65° |
| 2026-05-06 02:19 | 43.99820 | -77.77183 | 33787 ft | 524 kts | 65° |
| 2026-05-06 02:20 | 44.02784 | -77.67890 | 34316 ft | 528 kts | 64° |
| 2026-05-06 02:20 | 44.04273 | -77.63211 | 34583 ft | 530 kts | 64° |
| 2026-05-06 02:20 | 44.05762 | -77.58523 | 34887 ft | 530 kts | 64° |
| 2026-05-06 02:21 | 44.07249 | -77.53832 | 35253 ft | 530 kts | 64° |
| 2026-05-06 02:21 | 44.08732 | -77.49146 | 35603 ft | 529 kts | 64° |
| 2026-05-06 02:21 | 44.10212 | -77.44457 | 35918 ft | 529 kts | 64° |
| 2026-05-06 02:21 | 44.11690 | -77.39769 | 36238 ft | 529 kts | 63° |
| 2026-05-06 02:22 | 44.13166 | -77.35079 | 36537 ft | 529 kts | 63° |
| 2026-05-06 02:22 | 44.14640 | -77.30389 | 36824 ft | 529 kts | 63° |
| 2026-05-06 02:22 | 44.16112 | -77.25690 | 36923 ft | 530 kts | 63° |
| 2026-05-06 02:23 | 44.19043 | -77.16318 | 36890 ft | 526 kts | 63° |
| 2026-05-06 02:23 | 44.21958 | -77.06964 | 36875 ft | 526 kts | 63° |
| 2026-05-06 02:24 | 44.24865 | -76.97599 | 36890 ft | 526 kts | 63° |
| 2026-05-06 02:24 | 44.27769 | -76.88214 | 36881 ft | 528 kts | 63° |
| 2026-05-06 02:25 | 44.30669 | -76.78806 | 36871 ft | 527 kts | 64° |
| 2026-05-06 02:25 | 44.33560 | -76.69392 | 36887 ft | 527 kts | 64° |
| 2026-05-06 02:26 | 44.36442 | -76.59974 | 36872 ft | 527 kts | 64° |
| 2026-05-06 02:26 | 44.39312 | -76.50559 | 36917 ft | 527 kts | 64° |
| 2026-05-06 02:27 | 44.42180 | -76.41114 | 36876 ft | 527 kts | 64° |
| 2026-05-06 02:27 | 44.45022 | -76.31726 | 36871 ft | 527 kts | 64° |
| 2026-05-06 02:28 | 44.47870 | -76.22278 | 36875 ft | 527 kts | 64° |
| 2026-05-06 02:28 | 44.50689 | -76.12896 | 36872 ft | 527 kts | 64° |
| 2026-05-06 02:29 | 44.53524 | -76.03421 | 36884 ft | 527 kts | 64° |
| 2026-05-06 02:29 | 44.56370 | -75.93878 | 36850 ft | 527 kts | 64° |
| 2026-05-06 02:30 | 44.59190 | -75.84396 | 36843 ft | 526 kts | 64° |
| 2026-05-06 02:30 | 44.62000 | -75.74913 | 36850 ft | 526 kts | 64° |
| 2026-05-06 02:31 | 44.64765 | -75.65469 | 36851 ft | 527 kts | 66° |
| 2026-05-06 02:31 | 44.67408 | -75.55889 | 36870 ft | 527 kts | 66° |
| 2026-05-06 02:32 | 44.70024 | -75.46265 | 36829 ft | 527 kts | 66° |
| 2026-05-06 02:32 | 44.72635 | -75.36640 | 36847 ft | 527 kts | 66° |
| 2026-05-06 02:33 | 44.74814 | -75.28576 | 36850 ft | 526 kts | 66° |
| 2026-05-06 02:33 | 44.75673 | -75.25391 | 36852 ft | 527 kts | 66° |
| 2026-05-06 02:34 | 44.79994 | -75.09296 | 36867 ft | 526 kts | 67° |
| 2026-05-06 02:34 | 44.82553 | -74.99714 | 36856 ft | 526 kts | 67° |
| 2026-05-06 02:35 | 44.85117 | -74.90071 | 36875 ft | 525 kts | 67° |
| 2026-05-06 02:35 | 44.87759 | -74.80097 | 36878 ft | 525 kts | 67° |
| 2026-05-06 02:36 | 44.90303 | -74.70453 | 36874 ft | 525 kts | 67° |
| 2026-05-06 02:36 | 44.92840 | -74.60796 | 36893 ft | 525 kts | 67° |
| 2026-05-06 02:37 | 44.95369 | -74.51131 | 36837 ft | 524 kts | 67° |
| 2026-05-06 02:37 | 44.97885 | -74.41477 | 36839 ft | 524 kts | 68° |
| 2026-05-06 02:38 | 45.00274 | -74.31756 | 36825 ft | 525 kts | 74° |
| 2026-05-06 02:38 | 45.02115 | -74.21771 | 36820 ft | 525 kts | 74° |
| 2026-05-06 02:39 | 45.03924 | -74.11767 | 36823 ft | 525 kts | 74° |
| 2026-05-06 02:39 | 45.05711 | -74.01824 | 36835 ft | 525 kts | 75° |
| 2026-05-06 02:40 | 45.07495 | -73.91733 | 36805 ft | 525 kts | 78° |
| 2026-05-06 02:40 | 45.07862 | -73.86619 | 36824 ft | 523 kts | 90° |
| 2026-05-06 02:40 | 45.08045 | -73.81464 | 36785 ft | 526 kts | 87° |
| 2026-05-06 02:41 | 45.08477 | -73.71150 | 36825 ft | 526 kts | 88° |
| 2026-05-06 02:41 | 45.08877 | -73.60822 | 36816 ft | 525 kts | 88° |
| 2026-05-06 02:42 | 45.09241 | -73.50551 | 36817 ft | 526 kts | 88° |
| 2026-05-06 02:42 | 45.09593 | -73.40226 | 36801 ft | 525 kts | 88° |
| 2026-05-06 02:43 | 45.09937 | -73.29900 | 36803 ft | 525 kts | 88° |
| 2026-05-06 02:43 | 45.10271 | -73.19577 | 36803 ft | 525 kts | 88° |
| 2026-05-06 02:44 | 45.10595 | -73.09256 | 36839 ft | 525 kts | 89° |
| 2026-05-06 02:44 | 45.10909 | -72.98965 | 36816 ft | 524 kts | 89° |
| 2026-05-06 02:45 | 45.11215 | -72.88644 | 36814 ft | 525 kts | 89° |
| 2026-05-06 02:45 | 45.11512 | -72.78326 | 36805 ft | 524 kts | 89° |
| 2026-05-06 02:46 | 45.11799 | -72.68018 | 36802 ft | 524 kts | 89° |
| 2026-05-06 02:46 | 45.12076 | -72.57711 | 36815 ft | 524 kts | 89° |
| 2026-05-06 02:47 | 45.12345 | -72.47398 | 36813 ft | 524 kts | 89° |
| 2026-05-06 02:47 | 45.12604 | -72.37115 | 36787 ft | 521 kts | 89° |
| 2026-05-06 02:48 | 45.12852 | -72.26854 | 36798 ft | 521 kts | 89° |
| 2026-05-06 02:48 | 45.13091 | -72.16591 | 36788 ft | 521 kts | 89° |
| 2026-05-06 02:49 | 45.13321 | -72.06330 | 36795 ft | 521 kts | 89° |
| 2026-05-06 02:49 | 45.13542 | -71.96085 | 36802 ft | 520 kts | 89° |
| 2026-05-06 02:50 | 45.13753 | -71.85836 | 36795 ft | 521 kts | 89° |
| 2026-05-06 02:50 | 45.13957 | -71.75580 | 36807 ft | 521 kts | 89° |
| 2026-05-06 02:51 | 45.14152 | -71.65393 | 36803 ft | 521 kts | 89° |
| 2026-05-06 02:51 | 45.14091 | -71.55170 | 36816 ft | 518 kts | 95° |
| 2026-05-06 02:52 | 45.14010 | -71.53455 | 36806 ft | 518 kts | 95° |